Terminal Aerodrome Forecast
Issued by NWS Charleston, WV

Current Version | Previous Version | Text Only | Print | Product List | Glossary Off
Versions: 1 2 3 4 5 6 7 8 9 10 11 12 13 14 15 16 17 18 19 20 21 22 23 24 25

000
FTUS41 KRLX 151500 AAB
TAFCRW
TAF AMD
KCRW 151500Z 1515/1612 VRB02KT 2SM -DZ BR OVC003
     FM151600 VRB02KT 3SM BR OVC004
     FM151700 VRB02KT 5SM BR OVC008
     FM160000 VRB02KT 3SM -RA BR OVC008
     FM160300 00000KT 1SM -RA BR OVC004=

USA.gov is the U.S. government's official web portal to all federal, state and local government web resources and services.